Terminal Aerodrome Forecast
Issued by NWS

Home | Current Version | Previous Version | Text Only | Print | Product List | Glossary On
Versions: 1 2 3 4 5 6 7 8 9 10 11 12 13
000
FTUS44 KOUN 242320
TAFLAW
TAF
KLAW 242320Z 2500/2524 08006KT P6SM SCT080
     FM250300 36014KT P6SM BKN070
     FM250700 36016KT 6SM -SHRA OVC050
      TEMPO 2507/2511 3SM -TSRA SCT007 OVC020CB
     FM251100 36015KT 5SM -RA OVC007
     FM251600 34012G19KT P6SM SCT025=

USA.gov is the U.S. government's official web portal to all federal, state and local government web resources and services.